Time;durP1;ratioP1;P1;durP2;ratioP2;P2;SDS_P1;SDS_P2;PMS_P1;PMS_P2;Temp;Humidity;BMP_temperature;BMP_pressure;BME280_temperature;BME280_humidity;BME280_pressure;Samples;Min_cycle;Max_cycle;Signal;HPM_P1;HPM_P2
2022/04/18 00:00:52;;;;;;;0.30;0.30;;;;;;;7.54;100.00;94616.88;5092422;28;20416;-52
2022/04/18 00:03:21;;;;;;;1.40;0.93;;;;;;;7.71;100.00;94621.84;5091912;28;20522;-52
2022/04/18 00:05:49;;;;;;;1.60;0.63;;;;;;;8.12;100.00;94625.16;5092360;28;20837;-52
2022/04/18 00:08:17;;;;;;;0.30;0.20;;;;;;;7.58;100.00;94625.84;5092261;28;20424;-52
2022/04/18 00:10:46;;;;;;;0.30;0.20;;;;;;;7.43;100.00;94633.78;5090958;28;20502;-52
2022/04/18 00:13:14;;;;;;;0.40;0.33;;;;;;;7.72;100.00;94626.06;5091710;28;20475;-52
2022/04/18 00:15:42;;;;;;;0.30;0.20;;;;;;;7.37;100.00;94624.28;5091859;28;20431;-52
2022/04/18 00:18:12;;;;;;;0.30;0.20;;;;;;;7.71;100.00;94629.75;5091892;28;20424;-52
2022/04/18 00:20:40;;;;;;;0.30;0.20;;;;;;;7.71;100.00;94628.97;5091897;28;20420;-52
2022/04/18 00:23:09;;;;;;;0.30;0.20;;;;;;;7.48;100.00;94630.34;5091555;28;20451;-52
2022/04/18 00:25:37;;;;;;;0.33;0.30;;;;;;;7.91;100.00;94626.28;5091271;28;20908;-52
2022/04/18 00:28:06;;;;;;;0.30;0.20;;;;;;;8.39;100.00;94630.84;5095683;28;20464;-52
2022/04/18 00:30:34;;;;;;;0.30;0.20;;;;;;;8.30;100.00;94630.63;5095910;28;20452;-52
2022/04/18 00:33:03;;;;;;;0.30;0.20;;;;;;;8.30;100.00;94633.25;5095918;28;20511;-52
2022/04/18 00:35:32;;;;;;;0.30;0.20;;;;;;;8.21;100.00;94576.00;5095863;28;20420;-52
2022/04/18 00:38:01;;;;;;;0.30;0.20;;;;;;;7.86;100.00;94568.25;5096132;28;20424;-52
2022/04/18 00:40:29;;;;;;;0.30;0.20;;;;;;;8.03;100.00;94610.91;5095196;28;20428;-52
2022/04/18 00:43:02;;;;;;;0.30;0.20;;;;;;;7.90;100.00;94636.03;5096112;28;20500;-52
2022/04/18 00:45:31;;;;;;;0.30;0.20;;;;;;;7.85;100.00;94636.03;5095631;28;20521;-52
2022/04/18 00:48:00;;;;;;;0.30;0.20;;;;;;;7.89;100.00;94647.66;5095707;28;20428;-52
2022/04/18 00:50:29;;;;;;;0.30;0.20;;;;;;;7.88;100.00;94634.72;5095929;28;20444;-53
2022/04/18 00:53:00;;;;;;;0.30;0.20;;;;;;;8.13;100.00;94635.44;5095533;28;20481;-52
2022/04/18 00:55:30;;;;;;;0.30;0.20;;;;;;;8.05;100.00;94627.25;5095221;28;20451;-52
2022/04/18 00:58:01;;;;;;;0.30;0.20;;;;;;;8.61;100.00;94633.91;5095717;28;20471;-52
2022/04/18 01:00:29;;;;;;;0.30;0.20;;;;;;;8.95;100.00;94633.97;5095308;28;20486;-52
2022/04/18 01:02:58;;;;;;;0.30;0.20;;;;;;;8.88;100.00;94630.81;5095128;28;20508;-52
2022/04/18 01:05:26;;;;;;;0.30;0.20;;;;;;;8.35;92.28;94571.72;5095289;28;20554;-52
2022/04/18 01:07:55;;;;;;;0.30;0.20;;;;;;;8.47;99.85;94624.22;5095500;28;20452;-52
2022/04/18 01:10:24;;;;;;;0.30;0.20;;;;;;;8.42;93.63;94619.75;5094371;28;20472;-51
2022/04/18 01:12:53;;;;;;;0.30;0.20;;;;;;;8.90;92.90;94621.53;5095366;28;20471;-51
2022/04/18 01:15:21;;;;;;;0.30;0.20;;;;;;;9.13;95.07;94621.94;5095115;28;20424;-52
2022/04/18 01:17:50;;;;;;;0.30;0.30;;;;;;;9.06;84.82;94626.75;5094972;28;20451;-52
2022/04/18 01:20:18;;;;;;;0.33;0.27;;;;;;;8.92;88.05;94614.16;5095378;28;20447;-52
2022/04/18 01:22:51;;;;;;;0.50;0.40;;;;;;;8.48;85.27;94620.50;5094328;28;21054;-52
2022/04/18 01:30:57;;;;;;;0.30;0.20;;;;;;;9.07;82.13;94615.09;5095214;28;20503;-52
2022/04/18 01:33:26;;;;;;;0.30;0.20;;;;;;;9.24;80.14;94626.06;5094673;28;20452;-52
2022/04/18 01:35:54;;;;;;;0.60;0.60;;;;;;;8.86;87.78;94627.66;5094156;28;20458;-52
2022/04/18 01:38:24;;;;;;;0.30;0.20;;;;;;;8.74;86.48;94614.81;5094322;28;20475;-52
2022/04/18 01:40:53;;;;;;;0.30;0.20;;;;;;;9.19;83.08;94616.31;5094847;28;20503;-52
2022/04/18 01:43:21;;;;;;;0.30;0.20;;;;;;;9.24;77.78;94604.91;5094903;28;20455;-52
2022/04/18 01:45:50;;;;;;;0.30;0.20;;;;;;;9.10;79.29;94619.84;5094388;28;20525;-52
2022/04/18 01:48:18;;;;;;;0.30;0.20;;;;;;;9.21;79.56;94618.69;5094742;28;20435;-52
2022/04/18 01:50:47;;;;;;;0.30;0.20;;;;;;;9.36;96.14;94614.03;5094647;28;20424;-52
2022/04/18 01:53:15;;;;;;;0.30;0.20;;;;;;;9.67;82.29;94622.50;5094304;28;20424;-52
2022/04/18 01:55:45;;;;;;;0.30;0.20;;;;;;;9.88;100.00;94621.22;5094248;28;20428;-52
2022/04/18 01:58:13;;;;;;;0.30;0.20;;;;;;;9.33;80.53;94617.28;5094640;28;20842;-52
2022/04/18 02:00:42;;;;;;;0.30;0.20;;;;;;;9.25;75.17;94622.34;5094192;28;20965;-52
2022/04/18 02:03:10;;;;;;;0.30;0.20;;;;;;;9.68;78.09;94616.13;5094550;28;20420;-52
2022/04/18 02:05:39;;;;;;;0.30;0.20;;;;;;;9.66;76.64;94620.13;5094333;28;20514;-52
2022/04/18 02:08:08;;;;;;;0.30;0.20;;;;;;;9.72;73.07;94625.09;5094085;28;20481;-52
2022/04/18 02:10:36;;;;;;;0.30;0.20;;;;;;;9.25;75.36;94614.44;5093927;28;20886;-52
2022/04/18 02:13:06;;;;;;;0.30;0.20;;;;;;;9.21;71.58;94622.09;5093887;28;20459;-52
2022/04/18 02:15:34;;;;;;;0.30;0.20;;;;;;;9.49;69.66;94623.19;5093887;28;20455;-52
2022/04/18 02:18:03;;;;;;;0.30;0.20;;;;;;;9.18;70.48;94556.59;5093703;28;20413;-52
2022/04/18 02:20:31;;;;;;;0.30;0.20;;;;;;;9.40;69.53;94619.59;5094137;28;20783;-52
2022/04/18 02:23:00;;;;;;;0.30;0.20;;;;;;;9.58;73.45;94622.31;5093241;28;20448;-52
2022/04/18 02:25:28;;;;;;;0.30;0.20;;;;;;;9.50;72.77;94617.63;5093219;28;20550;-52
2022/04/18 02:27:56;;;;;;;0.30;0.20;;;;;;;8.85;71.37;94621.59;5093898;28;20493;-52
2022/04/18 02:30:26;;;;;;;0.30;0.20;;;;;;;8.91;73.29;94612.56;5093585;28;20460;-52
2022/04/18 02:32:55;;;;;;;0.30;0.20;;;;;;;8.85;73.22;94562.69;5093770;28;20524;-52
2022/04/18 02:35:24;;;;;;;0.30;0.20;;;;;;;8.97;69.15;94533.25;5093901;28;20416;-52
2022/04/18 02:37:54;;;;;;;0.30;0.20;;;;;;;9.79;66.59;94599.06;5093491;28;20445;-52
2022/04/18 02:40:23;;;;;;;0.30;0.20;;;;;;;9.02;68.79;94608.00;5093386;28;20420;-52
2022/04/18 02:42:52;;;;;;;0.30;0.20;;;;;;;9.33;68.94;94597.97;5093297;28;20862;-52
2022/04/18 02:45:20;;;;;;;0.30;0.20;;;;;;;9.60;69.54;94603.53;5093540;28;20567;-52
2022/04/18 02:47:50;;;;;;;0.30;0.20;;;;;;;9.35;69.91;94595.81;5093221;28;20456;-52
2022/04/18 02:50:18;;;;;;;0.30;0.20;;;;;;;9.42;73.23;94596.28;5092302;28;20449;-52
2022/04/18 02:52:47;;;;;;;0.30;0.20;;;;;;;9.31;70.63;94586.88;5092843;28;20807;-52
2022/04/18 02:55:15;;;;;;;0.30;0.20;;;;;;;9.06;71.35;94595.03;5093039;28;20416;-52
2022/04/18 02:57:44;;;;;;;0.30;0.20;;;;;;;9.29;79.02;94597.72;5093016;28;20540;-52
2022/04/18 03:00:13;;;;;;;0.30;0.20;;;;;;;9.40;73.24;94580.72;5093296;28;20446;-52
2022/04/18 03:02:42;;;;;;;0.30;0.20;;;;;;;8.73;77.54;94584.16;5092948;28;20424;-52
2022/04/18 03:05:13;;;;;;;0.30;0.30;;;;;;;8.44;70.84;94582.50;5092841;28;20521;-52
2022/04/18 03:07:42;;;;;;;0.30;0.20;;;;;;;8.94;71.35;94582.16;5092133;28;20448;-52
2022/04/18 03:10:11;;;;;;;0.30;0.20;;;;;;;9.18;69.02;94585.69;5092710;28;21047;-52
2022/04/18 03:12:48;;;;;;;0.30;0.30;;;;;;;8.92;83.36;94576.38;5166928;27;20296;-52
2022/04/18 03:15:17;;;;;;;0.40;0.40;;;;;;;8.53;72.42;94586.13;5150614;27;20510;-51
2022/04/18 03:17:45;;;;;;;0.30;0.20;;;;;;;8.68;73.30;94584.19;5150657;27;20465;-51
2022/04/18 03:20:13;;;;;;;0.30;0.20;;;;;;;8.64;69.55;94590.31;5149778;27;20514;-51
2022/04/18 03:22:42;;;;;;;0.30;0.20;;;;;;;8.99;73.22;94576.03;5150942;27;20882;-51
2022/04/18 03:25:10;;;;;;;0.30;0.20;;;;;;;9.13;75.53;94572.50;5149903;27;20871;-51
2022/04/18 03:27:38;;;;;;;0.30;0.20;;;;;;;9.54;73.02;94596.69;5150246;27;21042;-51
2022/04/18 03:30:09;;;;;;;0.50;0.50;;;;;;;9.71;68.42;94586.47;5150753;27;20446;-51
2022/04/18 03:32:38;;;;;;;0.30;0.20;;;;;;;9.81;62.08;94591.66;5150319;27;20560;-51
2022/04/18 03:35:07;;;;;;;0.30;0.20;;;;;;;9.39;65.18;94594.97;5150693;27;20878;-52
2022/04/18 03:40:20;;;;;;;0.30;0.20;;;;;;;8.34;67.10;94591.28;5150277;27;20997;-52
2022/04/18 03:42:49;;;;;;;0.30;0.20;;;;;;;8.73;66.97;94594.72;5150551;27;20440;-52
2022/04/18 03:45:19;;;;;;;0.30;0.20;;;;;;;8.68;65.39;94591.31;5150203;27;20520;-51
2022/04/18 03:47:47;;;;;;;0.50;0.50;;;;;;;8.55;67.20;94603.28;5149995;27;20459;-51
2022/04/18 03:50:15;;;;;;;0.30;0.20;;;;;;;8.31;70.60;94565.41;5149982;27;20914;-51
2022/04/18 03:52:44;;;;;;;0.30;0.20;;;;;;;8.46;70.91;94588.31;5149571;27;20537;-51
2022/04/18 03:55:12;;;;;;;0.30;0.20;;;;;;;8.92;71.10;94587.72;5150010;27;20456;-52
2022/04/18 03:57:40;;;;;;;0.30;0.20;;;;;;;8.56;66.63;94567.09;5150229;27;20791;-51
2022/04/18 04:00:11;;;;;;;0.30;0.20;;;;;;;8.74;68.49;94590.25;5149901;27;20465;-51
2022/04/18 04:02:43;;;;;;;1.40;1.40;;;;;;;8.34;66.91;94590.50;5149873;27;20535;-51
2022/04/18 04:05:11;;;;;;;0.30;0.20;;;;;;;8.55;68.27;94582.16;5149864;27;20442;-51
2022/04/18 04:07:41;;;;;;;0.30;0.30;;;;;;;8.32;67.91;94587.34;5148895;27;20438;-52
2022/04/18 04:10:10;;;;;;;0.30;0.20;;;;;;;7.89;67.95;94604.66;5149733;27;20429;-52
2022/04/18 04:12:38;;;;;;;0.33;0.23;;;;;;;8.08;70.90;94608.25;5148975;27;20572;-52
2022/04/18 04:15:08;;;;;;;0.30;0.20;;;;;;;8.07;68.87;94604.06;5149867;27;20462;-52
2022/04/18 04:17:37;;;;;;;0.30;0.20;;;;;;;8.28;74.84;94614.28;5149699;27;20453;-53
2022/04/18 04:20:22;;;;;;;0.40;0.30;;;;;;;7.82;68.95;94549.53;5149588;27;20474;-52
2022/04/18 04:22:51;;;;;;;0.30;0.20;;;;;;;7.96;71.95;94619.13;5143216;27;20423;-52
2022/04/18 04:25:20;;;;;;;0.30;0.20;;;;;;;8.10;74.12;94617.50;5135470;27;20430;-52
2022/04/18 04:27:49;;;;;;;0.47;0.40;;;;;;;8.42;72.14;94624.25;5135834;27;20868;-52
2022/04/18 04:30:17;;;;;;;0.30;0.20;;;;;;;8.35;71.57;94621.88;5135454;27;20783;-52
2022/04/18 04:32:46;;;;;;;0.60;0.60;;;;;;;8.30;74.93;94616.63;5135091;27;20463;-52
2022/04/18 04:35:14;;;;;;;0.50;0.50;;;;;;;8.64;68.79;94611.44;5135102;27;20427;-52
2022/04/18 04:37:44;;;;;;;0.30;0.20;;;;;;;8.47;67.10;94614.44;5135308;27;20434;-52
2022/04/18 04:40:13;;;;;;;0.40;0.30;;;;;;;7.97;74.72;94572.44;5134652;27;20427;-52
2022/04/18 04:42:41;;;;;;;0.30;0.20;;;;;;;8.08;73.54;94563.41;5134000;27;20427;-52
2022/04/18 04:45:10;;;;;;;0.40;0.40;;;;;;;8.11;71.37;94621.72;5135308;27;20466;-52
2022/04/18 04:47:38;;;;;;;0.30;0.30;;;;;;;8.49;73.70;94636.09;5135025;27;20505;-53
2022/04/18 04:50:08;;;;;;;0.40;0.30;;;;;;;8.35;71.74;94618.47;5134740;27;20450;-53
2022/04/18 04:52:36;;;;;;;0.37;0.30;;;;;;;8.38;72.31;94642.47;5134148;27;20514;-52
2022/04/18 04:55:08;;;;;;;0.40;0.30;;;;;;;8.28;75.18;94638.03;5133872;27;20449;-52
2022/04/18 04:57:37;;;;;;;0.40;0.23;;;;;;;8.47;74.79;94630.28;5133735;27;20491;-52
2022/04/18 05:00:07;;;;;;;0.40;0.30;;;;;;;8.55;74.80;94639.50;5134521;27;20430;-52
2022/04/18 05:02:36;;;;;;;0.40;0.33;;;;;;;8.34;75.61;94638.00;5134359;27;20426;-52
2022/04/18 05:05:05;;;;;;;0.50;0.50;;;;;;;7.95;78.96;94635.22;5134125;27;20938;-51
2022/04/18 05:07:33;;;;;;;0.47;0.47;;;;;;;7.22;81.71;94531.25;5133970;27;20419;-53
2022/04/18 05:10:01;;;;;;;0.30;0.20;;;;;;;7.96;77.17;94637.59;5134664;27;20431;-53
2022/04/18 05:12:32;;;;;;;0.30;0.20;;;;;;;7.06;79.74;94546.31;5134062;27;21014;-51
2022/04/18 05:15:04;;;;;;;0.30;0.20;;;;;;;8.03;82.40;94626.75;5134728;27;20501;-51
2022/04/18 05:17:33;;;;;;;0.40;0.30;;;;;;;8.24;88.59;94636.19;5134371;27;20522;-51
2022/04/18 05:20:03;;;;;;;0.30;0.20;;;;;;;8.22;73.99;94643.59;5134215;27;20509;-51
2022/04/18 05:22:31;;;;;;;0.30;0.20;;;;;;;8.61;79.26;94627.81;5134289;27;20484;-51
2022/04/18 05:25:00;;;;;;;0.30;0.20;;;;;;;8.72;72.46;94642.56;5134209;27;20987;-52
2022/04/18 05:27:28;;;;;;;0.83;0.83;;;;;;;8.49;74.20;94630.81;5134303;27;20834;-51
2022/04/18 05:29:58;;;;;;;0.30;0.20;;;;;;;8.73;73.71;94644.13;5134186;27;20426;-51
2022/04/18 05:32:26;;;;;;;0.30;0.20;;;;;;;9.12;70.67;94636.19;5134585;27;20534;-51
2022/04/18 05:34:55;;;;;;;0.30;0.20;;;;;;;8.99;70.07;94642.09;5133282;27;20423;-52
2022/04/18 05:37:23;;;;;;;0.33;0.23;;;;;;;9.17;66.11;94646.75;5134220;27;21019;-52
2022/04/18 05:39:51;;;;;;;0.40;0.30;;;;;;;9.23;68.19;94643.00;5134180;27;20921;-52
2022/04/18 05:42:23;;;;;;;0.37;0.23;;;;;;;9.25;72.31;94643.50;5134132;27;20852;-52
2022/04/18 05:44:52;;;;;;;0.70;0.70;;;;;;;9.05;69.27;94644.47;5134357;27;20427;-52
2022/04/18 05:47:21;;;;;;;0.30;0.20;;;;;;;9.13;68.90;94638.59;5134081;27;20535;-52
2022/04/18 05:49:50;;;;;;;0.30;0.20;;;;;;;9.64;66.95;94635.50;5133946;27;20935;-52
2022/04/18 05:52:18;;;;;;;0.30;0.20;;;;;;;9.50;67.01;94635.34;5134247;27;20489;-52
2022/04/18 05:54:46;;;;;;;0.30;0.20;;;;;;;9.77;62.68;94646.19;5134202;27;20454;-52
2022/04/18 05:57:15;;;;;;;0.40;0.30;;;;;;;9.68;63.77;94641.81;5133535;27;20454;-52
2022/04/18 05:59:43;;;;;;;0.30;0.20;;;;;;;9.89;60.84;94648.47;5133564;27;20506;-52
2022/04/18 06:02:11;;;;;;;0.30;0.20;;;;;;;9.58;63.24;94650.63;5133401;27;20462;-52
2022/04/18 06:04:41;;;;;;;0.30;0.20;;;;;;;9.66;65.57;94636.81;5133315;27;20473;-52
2022/04/18 06:07:10;;;;;;;0.30;0.20;;;;;;;9.33;62.04;94656.94;5133922;27;20514;-52
2022/04/18 06:09:38;;;;;;;0.30;0.20;;;;;;;9.72;69.85;94654.19;5133382;27;20431;-51
2022/04/18 06:12:10;;;;;;;0.30;0.20;;;;;;;9.05;63.22;94656.88;5133220;27;20509;-52
2022/04/18 06:14:39;;;;;;;0.30;0.20;;;;;;;8.89;59.10;94656.97;5133490;27;20466;-52
2022/04/18 06:17:07;;;;;;;0.30;0.20;;;;;;;9.31;60.48;94656.41;5133675;27;20801;-52
2022/04/18 06:19:36;;;;;;;0.30;0.20;;;;;;;9.83;60.26;94652.25;5133313;27;20855;-52
2022/04/18 06:22:06;;;;;;;0.30;0.20;;;;;;;9.81;61.92;94641.94;5133573;27;20809;-52
2022/04/18 06:24:34;;;;;;;0.40;0.40;;;;;;;9.92;57.71;94653.19;5133205;27;20419;-52
2022/04/18 06:27:02;;;;;;;0.30;0.20;;;;;;;9.59;58.94;94650.34;5133030;27;20820;-52
2022/04/18 06:29:31;;;;;;;0.30;0.30;;;;;;;9.81;60.19;94657.81;5133111;27;20423;-52
2022/04/18 06:31:59;;;;;;;0.30;0.20;;;;;;;9.36;60.45;94651.06;5132998;27;20517;-52
2022/04/18 06:34:30;;;;;;;0.70;0.70;;;;;;;9.65;59.13;94637.06;5132725;27;20474;-52
2022/04/18 06:36:59;;;;;;;0.30;0.20;;;;;;;9.97;58.16;94656.56;5133047;27;20493;-52
2022/04/18 06:39:28;;;;;;;0.30;0.20;;;;;;;9.37;58.03;94654.50;5132147;27;20923;-52
2022/04/18 06:41:57;;;;;;;0.30;0.20;;;;;;;9.63;61.60;94655.88;5132632;27;20526;-52
2022/04/18 06:44:25;;;;;;;0.30;0.20;;;;;;;9.82;61.02;94667.31;5132810;27;20463;-52
2022/04/18 06:46:57;;;;;;;0.30;0.20;;;;;;;9.55;60.35;94654.63;5131781;27;20822;-52
2022/04/18 06:49:25;;;;;;;0.30;0.20;;;;;;;9.51;59.91;94658.88;5132725;27;20513;-52
2022/04/18 06:51:54;;;;;;;0.30;0.20;;;;;;;9.79;58.38;94665.22;5132712;27;20950;-52
2022/04/18 06:54:22;;;;;;;0.30;0.20;;;;;;;8.91;59.01;94551.78;5132362;27;21018;-52
2022/04/18 06:56:59;;;;;;;0.30;0.20;;;;;;;9.54;57.67;94663.63;5132249;27;20454;-52
2022/04/18 06:59:29;;;;;;;0.30;0.20;;;;;;;9.59;57.57;94673.34;5132987;27;20833;-53
2022/04/18 07:01:59;;;;;;;0.40;0.30;;;;;;;9.69;56.95;94673.25;5133135;27;20418;-52
2022/04/18 07:04:27;;;;;;;0.30;0.20;;;;;;;10.08;57.33;94673.16;5132649;27;20426;-52
2022/04/18 07:06:56;;;;;;;0.30;0.20;;;;;;;9.64;55.05;94577.31;5132689;27;20462;-52
2022/04/18 07:09:24;;;;;;;0.30;0.20;;;;;;;10.34;55.75;94669.19;5132674;27;20432;-51
2022/04/18 07:11:54;;;;;;;0.30;0.20;;;;;;;9.98;58.59;94674.06;5132288;28;20569;-52
2022/04/18 07:14:23;;;;;;;0.30;0.20;;;;;;;9.86;54.09;94675.50;5132530;28;21043;-52
2022/04/18 07:16:51;;;;;;;0.30;0.20;;;;;;;9.96;55.59;94681.50;5132441;28;20526;-51
2022/04/18 07:19:20;;;;;;;0.30;0.20;;;;;;;9.57;57.13;94573.13;5132807;28;20477;-52
2022/04/18 07:21:48;;;;;;;0.30;0.20;;;;;;;9.82;56.50;94685.84;5132415;28;20434;-51
2022/04/18 07:24:16;;;;;;;2.20;0.43;;;;;;;9.51;58.62;94689.84;5132845;28;20491;-52
2022/04/18 07:26:45;;;;;;;0.30;0.20;;;;;;;10.14;63.88;94693.25;5132810;28;20848;-52
2022/04/18 07:29:15;;;;;;;0.50;0.47;;;;;;;10.60;60.18;94688.22;5132406;28;20483;-53
2022/04/18 07:31:44;;;;;;;1.10;0.30;;;;;;;9.98;57.74;94684.63;5132552;28;20477;-52
2022/04/18 07:34:12;;;;;;;0.30;0.20;;;;;;;9.69;60.79;94685.72;5132465;28;20531;-50
2022/04/18 07:36:40;;;;;;;0.30;0.20;;;;;;;10.38;53.44;94693.22;5132271;28;20475;-51
2022/04/18 07:39:09;;;;;;;0.30;0.20;;;;;;;10.80;60.88;94695.91;5132397;28;20505;-54
2022/04/18 07:41:37;;;;;;;0.33;0.23;;;;;;;10.59;57.68;94673.38;5131865;28;20457;-52
2022/04/18 07:44:06;;;;;;;0.40;0.30;;;;;;;11.19;55.48;94693.75;5132230;28;20513;-51
2022/04/18 07:46:36;;;;;;;0.30;0.20;;;;;;;11.04;54.81;94688.69;5132564;28;20459;-51
2022/04/18 07:49:04;;;;;;;0.30;0.20;;;;;;;9.65;53.10;94521.44;5132193;28;20441;-51
2022/04/18 07:51:34;;;;;;;0.40;0.30;;;;;;;11.02;53.89;94698.00;5131968;28;20435;-51
2022/04/18 07:54:04;;;;;;;0.30;0.20;;;;;;;11.03;50.63;94694.28;5132068;28;21071;-51
2022/04/18 07:56:33;;;;;;;0.30;0.20;;;;;;;11.60;51.77;94701.88;5131932;27;20995;-51
2022/04/18 07:59:02;;;;;;;0.67;0.67;;;;;;;10.63;50.50;94706.19;5134664;27;20465;-51
2022/04/18 08:01:31;;;;;;;0.40;0.30;;;;;;;10.37;50.58;94689.81;5135999;27;20426;-51
2022/04/18 08:04:03;;;;;;;0.30;0.20;;;;;;;10.81;51.27;94710.72;5136325;27;20441;-51
2022/04/18 08:06:32;;;;;;;0.30;0.20;;;;;;;10.46;51.95;94705.88;5135934;27;20450;-52
2022/04/18 08:09:01;;;;;;;0.30;0.20;;;;;;;10.86;55.33;94697.41;5135972;27;20407;-51
2022/04/18 08:11:29;;;;;;;0.40;0.30;;;;;;;11.24;51.24;94706.16;5135713;27;20557;-51
2022/04/18 08:13:58;;;;;;;0.30;0.30;;;;;;;11.70;48.17;94703.63;5135703;27;20508;-51
2022/04/18 08:16:26;;;;;;;0.40;0.30;;;;;;;11.32;49.92;94663.06;5135610;27;20808;-51
2022/04/18 08:18:56;;;;;;;3.93;0.60;;;;;;;11.93;49.44;94697.38;5135896;27;20521;-51
2022/04/18 08:21:26;;;;;;;0.40;0.40;;;;;;;11.69;46.69;94704.72;5135572;27;20491;-51
2022/04/18 08:23:54;;;;;;;0.40;0.30;;;;;;;11.01;49.30;94707.81;5135377;27;20481;-51
2022/04/18 08:26:29;;;;;;;0.30;0.20;;;;;;;11.06;49.44;94712.25;5135969;27;20440;-51
2022/04/18 08:28:58;;;;;;;0.40;0.30;;;;;;;10.51;51.41;94711.09;5135683;27;20477;-51
2022/04/18 08:31:27;;;;;;;0.60;0.60;;;;;;;11.45;55.71;94686.22;5135506;27;20995;-52
2022/04/18 08:33:56;;;;;;;0.40;0.40;;;;;;;11.63;52.40;94711.94;5135768;27;20823;-51
2022/04/18 08:36:26;;;;;;;0.30;0.20;;;;;;;11.70;49.86;94704.41;5135470;27;20450;-51
2022/04/18 08:38:55;;;;;;;0.30;0.20;;;;;;;12.35;48.98;94704.31;5135232;27;20454;-51
2022/04/18 08:41:31;;;;;;;0.30;0.30;;;;;;;11.82;47.94;94702.09;5135172;27;20422;-52
2022/04/18 08:44:00;;;;;;;0.30;0.20;;;;;;;11.81;50.77;94708.50;5135321;27;20906;-52
2022/04/18 08:46:29;;;;;;;0.30;0.20;;;;;;;11.97;49.47;94703.69;5135066;27;20470;-51
2022/04/18 08:54:30;;;;;;;0.30;0.20;;;;;;;11.80;51.11;94714.88;5134965;27;20458;-52
2022/04/18 08:56:59;;;;;;;0.30;0.20;;;;;;;11.88;48.89;94719.50;5135206;27;20427;-52
2022/04/18 08:59:27;;;;;;;0.30;0.20;;;;;;;12.16;47.18;94716.91;5134905;27;20454;-52
2022/04/18 09:01:55;;;;;;;0.30;0.20;;;;;;;12.56;47.77;94705.50;5134636;27;20466;-52
2022/04/18 09:04:24;;;;;;;0.30;0.30;;;;;;;12.09;51.13;94706.69;5134781;27;20431;-52
2022/04/18 09:06:54;;;;;;;0.30;0.20;;;;;;;11.97;52.54;94714.31;5134280;27;20454;-53
2022/04/18 09:09:30;;;;;;;0.37;0.27;;;;;;;11.91;51.04;94707.53;5134811;27;20846;-53
2022/04/18 09:11:58;;;;;;;0.40;0.30;;;;;;;12.27;51.63;94708.44;5134138;27;20569;-53
2022/04/18 09:14:28;;;;;;;0.30;0.20;;;;;;;12.46;46.13;94711.81;5134024;27;20518;-52
2022/04/18 09:16:56;;;;;;;0.30;0.20;;;;;;;12.52;47.10;94702.66;5134140;27;20438;-52
2022/04/18 09:19:24;;;;;;;0.30;0.20;;;;;;;12.22;48.03;94705.88;5134131;27;20510;-52
2022/04/18 09:22:02;;;;;;;0.40;0.30;;;;;;;11.99;48.79;94706.84;5133938;27;20526;-52
2022/04/18 09:24:34;;;;;;;0.30;0.27;;;;;;;12.94;47.07;94700.75;5134309;27;20907;-52
2022/04/18 09:27:07;;;;;;;0.30;0.20;;;;;;;13.82;42.70;94700.88;5134239;27;20441;-52
2022/04/18 09:29:39;;;;;;;0.30;0.20;;;;;;;13.44;45.23;94693.53;5134256;27;20495;-52
2022/04/18 09:32:09;;;;;;;0.30;0.20;;;;;;;13.23;46.12;94701.22;5134277;27;20419;-53
2022/04/18 09:34:37;;;;;;;0.30;0.20;;;;;;;13.18;45.85;94696.00;5134079;27;20479;-52
2022/04/18 09:37:18;;;;;;;0.30;0.20;;;;;;;13.34;42.90;94690.03;5134032;27;20430;-56
2022/04/18 09:39:53;;;;;;;0.30;0.20;;;;;;;14.17;41.00;94696.50;5134205;27;20430;-53
2022/04/18 09:42:23;;;;;;;0.40;0.40;;;;;;;15.33;39.84;94673.78;5134490;27;20487;-53
2022/04/18 09:44:51;;;;;;;0.30;0.20;;;;;;;15.05;40.00;94660.72;5134386;27;20447;-53
2022/04/18 09:47:21;;;;;;;0.37;0.27;;;;;;;15.70;39.74;94684.66;5134372;27;20419;-53
2022/04/18 09:49:51;;;;;;;0.70;0.60;;;;;;;15.41;39.68;94681.78;5133775;27;20430;-53
2022/04/18 09:52:21;;;;;;;0.43;0.40;;;;;;;14.72;40.50;94691.59;5133985;27;20463;-54
2022/04/18 09:54:54;;;;;;;0.30;0.20;;;;;;;13.70;41.02;94590.66;5133910;27;20561;-54
2022/04/18 09:57:24;;;;;;;0.40;0.30;;;;;;;13.37;43.39;94693.97;5133732;27;20799;-54
2022/04/18 09:59:54;;;;;;;0.43;0.40;;;;;;;13.99;46.50;94690.31;5133881;27;20849;-53
2022/04/18 10:02:24;;;;;;;0.60;0.60;;;;;;;14.24;45.94;94694.22;5133672;27;20434;-52
2022/04/18 10:04:54;;;;;;;0.40;0.30;;;;;;;14.51;46.37;94693.25;5133836;27;20903;-53
2022/04/18 10:07:24;;;;;;;12.50;0.50;;;;;;;14.48;46.52;94691.19;5133767;27;20426;-53
2022/04/18 10:09:54;;;;;;;0.40;0.30;;;;;;;15.37;42.86;94686.19;5133991;27;20427;-54
2022/04/18 10:12:23;;;;;;;0.30;0.20;;;;;;;15.14;41.67;94684.75;5133365;27;20462;-54
2022/04/18 10:14:52;;;;;;;0.30;0.20;;;;;;;15.34;42.86;94680.69;5133841;27;20895;-54
2022/04/18 10:17:24;;;;;;;3.03;0.30;;;;;;;16.21;41.48;94673.06;5133137;27;20422;-53
2022/04/18 10:20:05;;;;;;;0.30;0.20;;;;;;;13.91;40.74;94624.44;5133732;27;20426;-53
2022/04/18 10:23:03;;;;;;;0.30;0.20;;;;;;;13.94;41.89;94676.31;5133309;27;20437;-53
2022/04/18 10:25:50;;;;;;;0.30;0.20;;;;;;;14.72;43.39;94680.94;5133589;27;20483;-54
2022/04/18 10:28:21;;;;;;;0.30;0.20;;;;;;;14.53;44.26;94680.38;5133206;27;20419;-54
2022/04/18 10:30:54;;;;;;;0.40;0.30;;;;;;;14.34;45.41;94679.88;5132865;27;20457;-54
2022/04/18 10:33:25;;;;;;;1.10;0.30;;;;;;;14.23;47.32;94683.84;5133187;27;20427;-54
2022/04/18 10:35:54;;;;;;;0.30;0.20;;;;;;;13.60;47.14;94644.97;5132410;27;20478;-54
2022/04/18 10:38:31;;;;;;;0.30;0.20;;;;;;;14.57;45.59;94681.38;5133154;27;20475;-54
2022/04/18 10:44:00;;;;;;;0.40;0.30;;;;;;;14.19;47.33;94682.91;5132697;27;20434;-54
2022/04/18 10:46:28;;;;;;;0.30;0.30;;;;;;;13.52;48.65;94676.84;5131928;27;20435;-54
2022/04/18 10:48:58;;;;;;;0.30;0.20;;;;;;;13.82;49.24;94679.56;5132662;27;20422;-53
2022/04/18 10:51:34;;;;;;;0.40;0.30;;;;;;;14.10;47.00;94671.41;5132961;27;20456;-53
2022/04/18 10:54:10;;;;;;;0.40;0.40;;;;;;;14.93;45.86;94671.22;5132904;27;20450;-53
2022/04/18 10:56:50;;;;;;;0.40;0.30;;;;;;;15.05;44.84;94666.06;5132883;27;20473;-54
2022/04/18 10:59:21;;;;;;;0.30;0.20;;;;;;;16.52;40.83;94632.66;5132645;27;20422;-54
2022/04/18 11:01:51;;;;;;;0.30;0.20;;;;;;;16.10;40.16;94658.47;5132830;27;20418;-55
2022/04/18 11:04:23;;;;;;;1.53;0.30;;;;;;;17.04;39.92;94658.03;5132659;27;20502;-55
2022/04/18 11:07:01;;;;;;;0.30;0.20;;;;;;;15.38;41.36;94654.94;5132888;27;20434;-55
2022/04/18 11:09:32;;;;;;;0.40;0.20;;;;;;;16.61;40.75;94649.47;5132673;27;20501;-55
2022/04/18 11:12:06;;;;;;;0.40;0.30;;;;;;;17.38;37.65;94645.50;5132575;27;20492;-55
2022/04/18 11:14:52;;;;;;;0.40;0.30;;;;;;;16.84;40.02;94644.63;5132483;28;20823;-55
2022/04/18 11:17:32;;;;;;;0.30;0.20;;;;;;;15.56;42.55;94651.19;5132382;28;20518;-55
2022/04/18 11:20:29;;;;;;;0.30;0.20;;;;;;;15.71;43.36;94642.69;5132362;27;20431;-55
2022/04/18 11:23:23;;;;;;;0.30;0.20;;;;;;;15.63;42.24;94622.91;5132691;28;20457;-55
2022/04/18 11:25:58;;;;;;;0.30;0.20;;;;;;;17.03;39.94;94642.28;5133161;28;20434;-57
2022/04/18 11:28:34;;;;;;;0.40;0.37;;;;;;;16.36;40.20;94637.78;5134070;28;20514;-57
2022/04/18 11:31:08;;;;;;;0.37;0.27;;;;;;;15.01;42.15;94641.09;5133484;28;20417;-58
2022/04/18 11:33:42;;;;;;;0.40;0.20;;;;;;;15.87;40.37;94641.06;5135467;27;20508;-57
2022/04/18 11:36:11;;;;;;;0.40;0.30;;;;;;;15.85;39.92;94629.91;5136511;27;20458;-56
2022/04/18 11:38:39;;;;;;;0.40;0.20;;;;;;;17.30;38.96;94625.72;5136445;27;20930;-57
2022/04/18 11:41:12;;;;;;;0.40;0.20;;;;;;;19.52;36.75;94621.44;5136507;27;20418;-56
2022/04/18 11:43:41;;;;;;;0.60;0.30;;;;;;;19.42;36.61;94622.72;5134942;27;20431;-56
2022/04/18 11:46:10;;;;;;;0.40;0.40;;;;;;;20.69;33.42;94617.97;5136249;27;20783;-57
2022/04/18 11:48:39;;;;;;;0.40;0.30;;;;;;;18.96;36.06;94629.41;5136154;27;20913;-55
2022/04/18 11:51:07;;;;;;;0.40;0.20;;;;;;;16.64;38.76;94632.00;5136303;27;20422;-54
2022/04/18 11:53:40;;;;;;;0.40;0.23;;;;;;;16.96;39.47;94626.75;5136482;27;20483;-54
2022/04/18 11:56:09;;;;;;;0.40;0.30;;;;;;;16.26;40.98;94623.97;5136548;27;20466;-54
2022/04/18 11:58:40;;;;;;;0.40;0.30;;;;;;;15.93;42.77;94626.44;5136444;27;20457;-55
2022/04/18 12:06:49;;;;;;;0.30;0.20;;;;;;;16.54;42.00;94605.63;5136108;27;20800;-55
2022/04/18 12:09:22;;;;;;;0.40;0.30;;;;;;;15.51;43.47;94547.22;5136139;27;20514;-56
2022/04/18 12:11:51;;;;;;;5.00;0.30;;;;;;;14.27;45.02;94620.84;5135943;27;21070;-55